Time;durP1;ratioP1;P1;durP2;ratioP2;P2;SDS_P1;SDS_P2;PMS_P1;PMS_P2;Temp;Humidity;BMP_temperature;BMP_pressure;BME280_temperature;BME280_humidity;BME280_pressure;Samples;Min_cycle;Max_cycle;Signal;HPM_P1;HPM_P2
2021/11/02 00:02:14;;;;;;;8.52;3.83;;;8.30;84.00;;;;;;4961812;28;20424;-84
2021/11/02 00:04:41;;;;;;;9.25;3.88;;;8.30;84.00;;;;;;4962802;28;20050;-83
2021/11/02 00:07:08;;;;;;;7.10;4.03;;;8.30;84.00;;;;;;4968035;28;20047;-83
2021/11/02 00:09:37;;;;;;;7.20;3.90;;;8.30;84.00;;;;;;4970361;28;20039;-83
2021/11/02 00:12:05;;;;;;;9.38;4.57;;;8.30;83.90;;;;;;4970808;28;20058;-84
2021/11/02 00:14:32;;;;;;;8.95;4.45;;;8.30;84.00;;;;;;4967313;28;20554;-83
2021/11/02 00:17:06;;;;;;;7.70;4.25;;;8.30;84.00;;;;;;4967748;28;20047;-84
2021/11/02 00:19:33;;;;;;;8.65;4.85;;;8.30;84.00;;;;;;4967690;28;20050;-83
2021/11/02 00:22:14;;;;;;;7.95;4.63;;;8.30;84.00;;;;;;4967710;28;20488;-83
2021/11/02 00:27:25;;;;;;;8.00;4.55;;;8.30;84.00;;;;;;4971923;28;20066;-83
2021/11/02 00:29:53;;;;;;;10.27;4.78;;;8.30;84.00;;;;;;4969975;28;20056;-83
2021/11/02 00:32:21;;;;;;;8.77;4.47;;;8.30;84.00;;;;;;4967804;28;20062;-84
2021/11/02 00:34:48;;;;;;;8.82;4.85;;;8.40;84.10;;;;;;4964761;28;20062;-83
2021/11/02 00:37:16;;;;;;;9.65;5.05;;;8.30;84.10;;;;;;4959209;28;20082;-83
2021/11/02 00:39:43;;;;;;;7.72;4.70;;;8.30;84.10;;;;;;4967057;28;20524;-83
2021/11/02 00:42:11;;;;;;;10.27;4.70;;;8.30;84.10;;;;;;4968893;28;20050;-83
2021/11/02 00:44:39;;;;;;;9.07;4.25;;;8.40;84.20;;;;;;4968731;28;20109;-83
2021/11/02 00:47:06;;;;;;;10.00;4.70;;;8.30;84.20;;;;;;4967127;28;20058;-84
2021/11/02 00:49:33;;;;;;;10.15;4.80;;;8.30;84.20;;;;;;4967139;28;20050;-83
2021/11/02 00:52:00;;;;;;;8.38;4.35;;;8.30;84.20;;;;;;4965577;28;20045;-83
2021/11/02 00:54:27;;;;;;;8.93;4.35;;;8.30;84.20;;;;;;4970543;28;20080;-83
2021/11/02 00:56:54;;;;;;;8.15;4.57;;;8.40;84.20;;;;;;4969119;28;20051;-84
2021/11/02 00:59:21;;;;;;;8.77;3.85;;;8.40;84.20;;;;;;4966713;28;20061;-83
2021/11/02 01:01:48;;;;;;;7.80;4.10;;;8.40;84.20;;;;;;4966499;28;20058;-83
2021/11/02 01:04:15;;;;;;;8.00;3.72;;;8.40;84.20;;;;;;4966461;28;20053;-83
2021/11/02 01:06:42;;;;;;;10.80;4.00;;;8.40;84.20;;;;;;4968597;28;20055;-83
2021/11/02 01:09:09;;;;;;;11.32;4.60;;;8.40;84.20;;;;;;4969167;28;20046;-83
2021/11/02 01:11:36;;;;;;;9.43;3.92;;;8.40;84.20;;;;;;4968316;28;20066;-83
2021/11/02 01:14:04;;;;;;;9.00;4.07;;;8.40;84.20;;;;;;4966582;28;20051;-83
2021/11/02 01:16:31;;;;;;;9.30;3.95;;;8.40;84.20;;;;;;4966614;28;20046;-83
2021/11/02 01:18:58;;;;;;;10.45;3.78;;;8.40;84.20;;;;;;4964853;28;20062;-83
2021/11/02 01:21:25;;;;;;;7.93;3.72;;;8.40;84.20;;;;;;4970806;28;20047;-83
2021/11/02 01:23:52;;;;;;;6.35;3.53;;;8.40;84.20;;;;;;4968510;28;20054;-83
2021/11/02 01:26:19;;;;;;;7.60;3.90;;;8.40;84.20;;;;;;4967024;28;20063;-83
2021/11/02 01:28:46;;;;;;;11.73;3.47;;;8.40;84.20;;;;;;4966463;28;20054;-83
2021/11/02 01:31:13;;;;;;;7.72;3.28;;;8.40;84.10;;;;;;4965087;28;20050;-83
2021/11/02 01:33:40;;;;;;;7.70;3.50;;;8.40;84.20;;;;;;4968636;28;20482;-84
2021/11/02 01:36:08;;;;;;;9.85;3.88;;;8.40;84.10;;;;;;4969112;28;20059;-83
2021/11/02 01:38:35;;;;;;;10.27;3.40;;;8.30;84.10;;;;;;4970168;28;20050;-84
2021/11/02 01:41:05;;;;;;;7.60;3.53;;;8.30;84.10;;;;;;4966361;28;20443;-84
2021/11/02 01:43:33;;;;;;;7.55;3.80;;;8.30;84.10;;;;;;4966056;28;20057;-82
2021/11/02 01:46:02;;;;;;;8.20;3.40;;;8.30;84.10;;;;;;4965992;28;20078;-83
2021/11/02 01:48:29;;;;;;;10.70;3.28;;;8.30;84.10;;;;;;4970072;28;20078;-83
2021/11/02 01:50:56;;;;;;;5.80;3.38;;;8.40;84.10;;;;;;4968089;28;20120;-83
2021/11/02 01:53:23;;;;;;;6.22;3.47;;;8.30;84.10;;;;;;4966595;28;20102;-83
2021/11/02 01:55:50;;;;;;;9.15;3.92;;;8.40;84.10;;;;;;4965978;28;20062;-84
2021/11/02 01:58:17;;;;;;;6.63;3.53;;;8.30;84.10;;;;;;4964356;28;20063;-83
2021/11/02 02:00:55;;;;;;;9.85;3.35;;;8.30;84.10;;;;;;4967813;28;20059;-83
2021/11/02 02:03:37;;;;;;;9.65;3.88;;;8.30;84.10;;;;;;4954821;28;20548;-83
2021/11/02 02:06:23;;;;;;;9.43;3.33;;;8.30;84.10;;;;;;4968357;28;20051;-83
2021/11/02 02:09:09;;;;;;;13.68;3.33;;;8.30;84.10;;;;;;4968166;28;20050;-82
2021/11/02 02:12:20;;;;;;;6.38;3.50;;;8.30;84.10;;;;;;4956946;28;20059;-83
2021/11/02 02:15:16;;;;;;;8.65;3.60;;;8.30;84.10;;;;;;4958388;28;20051;-83
2021/11/02 02:17:50;;;;;;;8.20;3.38;;;8.30;84.10;;;;;;4959093;28;21219;-84
2021/11/02 02:20:33;;;;;;;7.25;3.80;;;8.30;84.20;;;;;;4961291;28;20059;-83
2021/11/02 02:23:27;;;;;;;8.00;3.28;;;8.20;84.20;;;;;;4961925;28;20047;-83
2021/11/02 02:26:05;;;;;;;5.93;3.05;;;8.20;84.20;;;;;;4968579;28;20051;-83
2021/11/02 02:28:37;;;;;;;9.70;3.45;;;8.20;84.20;;;;;;4967305;28;20050;-84
2021/11/02 02:31:07;;;;;;;8.73;3.35;;;8.20;84.20;;;;;;4961414;28;20043;-83
2021/11/02 02:33:41;;;;;;;8.63;3.53;;;8.20;84.20;;;;;;4958724;28;20060;-84
2021/11/02 02:36:09;;;;;;;5.85;3.22;;;8.20;84.20;;;;;;4956370;28;20051;-83
2021/11/02 02:38:40;;;;;;;8.57;3.03;;;8.20;84.20;;;;;;4959469;28;20086;-83
2021/11/02 02:41:08;;;;;;;5.85;2.90;;;8.20;84.20;;;;;;4961143;28;20055;-84
2021/11/02 02:43:38;;;;;;;8.35;2.88;;;8.20;84.20;;;;;;4961204;28;20058;-83
2021/11/02 02:46:06;;;;;;;8.27;3.25;;;8.20;84.20;;;;;;4960695;28;20046;-83
2021/11/02 02:48:34;;;;;;;10.85;3.15;;;8.20;84.20;;;;;;4955581;28;20047;-83
2021/11/02 02:51:03;;;;;;;8.85;3.22;;;8.20;84.20;;;;;;4971647;28;20078;-83
2021/11/02 02:53:32;;;;;;;7.63;3.08;;;8.20;84.10;;;;;;4970805;28;20080;-84
2021/11/02 02:56:01;;;;;;;5.13;2.53;;;8.20;84.20;;;;;;4969090;28;20050;-84
2021/11/02 02:58:34;;;;;;;5.65;2.75;;;8.20;84.20;;;;;;4973401;28;20057;-83
2021/11/02 03:01:01;;;;;;;6.97;2.58;;;8.10;84.10;;;;;;4968969;28;20448;-83
2021/11/02 03:03:30;;;;;;;5.32;2.65;;;8.20;84.20;;;;;;4972237;28;20530;-84
2021/11/02 03:06:00;;;;;;;7.03;2.47;;;8.20;84.20;;;;;;4971467;28;20471;-83
2021/11/02 03:08:28;;;;;;;5.25;2.55;;;8.20;84.20;;;;;;4962094;28;20047;-84
2021/11/02 03:10:57;;;;;;;7.80;3.00;;;8.20;84.20;;;;;;4964480;28;20105;-84
2021/11/02 03:13:25;;;;;;;7.07;2.55;;;8.10;84.20;;;;;;4968746;28;20526;-83
2021/11/02 03:16:02;;;;;;;6.43;2.63;;;8.20;84.20;;;;;;4968929;28;20464;-83
2021/11/02 03:49:26;;;;;;;11.77;2.15;;;8.10;84.30;;;;;;4968199;28;20066;-83
2021/11/02 03:54:37;;;;;;;7.00;1.88;;;8.20;84.40;;;;;;4957182;28;20061;-84
2021/11/02 05:07:35;;;;;;;5.90;2.20;;;8.20;84.50;;;;;;4893496;29;20072;-83
2021/11/02 05:10:22;;;;;;;7.20;2.30;;;8.20;84.50;;;;;;4893476;29;20044;-83
2021/11/02 05:13:44;;;;;;;7.22;2.35;;;8.10;84.50;;;;;;4893257;29;20048;-83
2021/11/02 05:57:14;;;;;;;7.47;3.10;;;8.20;84.60;;;;;;4950336;29;20055;-83
2021/11/02 05:59:45;;;;;;;7.32;3.13;;;8.20;84.60;;;;;;4950001;29;20051;-83
2021/11/02 06:28:05;;;;;;;8.45;3.42;;;8.20;84.60;;;;;;4953152;28;20054;-83
2021/11/02 06:33:09;;;;;;;12.02;4.20;;;8.20;84.50;;;;;;4968020;28;20518;-83
2021/11/02 06:35:44;;;;;;;8.27;4.03;;;8.20;84.50;;;;;;4970090;28;20051;-83
2021/11/02 06:38:31;;;;;;;9.85;4.25;;;8.20;84.60;;;;;;4965638;28;20050;-83
2021/11/02 07:19:31;;;;;;;8.80;4.60;;;8.20;84.60;;;;;;4960919;28;20055;-83
2021/11/02 07:28:09;;;;;;;8.05;4.20;;;8.10;84.60;;;;;;4919890;29;20048;-83
2021/11/02 08:47:34;;;;;;;6.18;3.92;;;8.40;85.10;;;;;;4948128;29;20079;-82
2021/11/02 08:50:04;;;;;;;6.75;4.07;;;8.40;85.10;;;;;;4946551;29;20501;-82
2021/11/02 08:52:33;;;;;;;5.63;3.70;;;8.50;85.20;;;;;;4951294;29;20047;-82
2021/11/02 08:55:01;;;;;;;9.68;3.80;;;8.50;85.20;;;;;;4951364;28;20118;-82
2021/11/02 08:57:28;;;;;;;6.28;3.53;;;8.60;85.20;;;;;;4950674;29;20082;-82
2021/11/02 08:59:55;;;;;;;6.03;3.50;;;8.60;85.20;;;;;;4948734;29;20047;-82
2021/11/02 09:02:23;;;;;;;6.50;3.22;;;8.60;85.10;;;;;;4933017;29;20522;-82
2021/11/02 09:05:19;;;;;;;4.70;3.30;;;8.60;85.10;;;;;;4947334;29;20050;-83
2021/11/02 09:07:46;;;;;;;7.00;3.20;;;8.60;85.10;;;;;;4944791;29;20417;-83
2021/11/02 09:10:21;;;;;;;7.63;3.13;;;8.70;85.10;;;;;;4942555;28;20051;-82
2021/11/02 09:12:53;;;;;;;7.35;3.38;;;8.80;85.10;;;;;;4956313;28;20047;-82
2021/11/02 09:15:33;;;;;;;6.53;3.03;;;8.80;85.00;;;;;;4954833;28;20047;-82
2021/11/02 09:18:07;;;;;;;4.68;2.97;;;8.80;85.00;;;;;;4972262;28;20047;-82
2021/11/02 09:20:35;;;;;;;7.40;3.58;;;8.80;85.00;;;;;;4958200;28;20054;-82
2021/11/02 09:23:04;;;;;;;6.70;3.00;;;8.90;85.00;;;;;;4958539;28;20055;-82
2021/11/02 09:25:32;;;;;;;10.05;3.38;;;8.90;85.00;;;;;;4961269;28;20047;-83
2021/11/02 09:27:59;;;;;;;6.65;3.42;;;8.90;85.00;;;;;;4959829;28;20530;-82
2021/11/02 09:30:27;;;;;;;7.68;3.33;;;8.90;85.10;;;;;;4954805;28;20042;-83
2021/11/02 09:32:55;;;;;;;8.27;3.13;;;9.00;85.10;;;;;;4957425;28;20102;-83
2021/11/02 09:35:25;;;;;;;5.60;3.20;;;9.10;85.20;;;;;;4964397;28;20054;-82
2021/11/02 09:38:19;;;;;;;6.45;2.80;;;9.20;85.20;;;;;;4962101;28;20055;-83
2021/11/02 09:41:01;;;;;;;;;;;9.20;85.20;;;;;;4958492;28;20054;-83
2021/11/02 09:43:58;;;;;;;6.15;3.08;;;9.30;85.20;;;;;;4958409;28;19922;-82
2021/11/02 09:47:03;;;;;;;5.97;2.92;;;9.40;85.20;;;;;;4958038;28;20051;-82
2021/11/02 09:49:30;;;;;;;6.00;2.30;;;9.50;85.10;;;;;;4958091;28;20047;-82
2021/11/02 09:51:56;;;;;;;5.30;2.10;;;9.50;84.90;;;;;;4958379;28;20046;-82
2021/11/02 09:54:34;;;;;;;4.80;2.10;;;9.60;84.80;;;;;;4954247;28;20062;-82
2021/11/02 09:57:14;;;;;;;3.95;1.77;;;9.60;84.60;;;;;;4968474;28;20467;-83
2021/11/02 09:59:53;;;;;;;6.70;2.22;;;9.70;84.40;;;;;;4958139;28;20051;-82
2021/11/02 10:02:56;;;;;;;6.35;2.03;;;9.70;84.20;;;;;;4959852;28;20051;-83
2021/11/02 10:05:35;;;;;;;4.38;2.10;;;9.80;84.10;;;;;;4959391;28;20053;-82
2021/11/02 10:08:22;;;;;;;7.93;2.70;;;9.80;84.00;;;;;;4959563;28;20140;-83
2021/11/02 10:11:08;;;;;;;4.68;2.03;;;9.80;83.80;;;;;;4957645;28;20054;-82
2021/11/02 10:13:58;;;;;;;4.40;2.08;;;9.80;83.70;;;;;;4957771;28;20500;-83
2021/11/02 10:16:59;;;;;;;6.15;1.90;;;9.90;83.70;;;;;;4958274;28;20051;-83
2021/11/02 10:19:45;;;;;;;4.10;1.80;;;9.90;83.60;;;;;;4957198;28;20051;-83
2021/11/02 10:22:24;;;;;;;4.60;1.80;;;9.90;83.50;;;;;;4960206;28;20057;-83
2021/11/02 10:25:18;;;;;;;2.78;1.33;;;9.90;83.50;;;;;;4970331;28;20058;-83
2021/11/02 10:28:22;;;;;;;4.03;1.70;;;9.90;83.40;;;;;;4968398;28;20063;-82
2021/11/02 10:31:21;;;;;;;4.18;1.58;;;9.90;83.30;;;;;;4957090;28;20069;-83
2021/11/02 10:34:00;;;;;;;3.20;1.40;;;9.90;83.30;;;;;;4957477;28;20042;-82
2021/11/02 10:36:46;;;;;;;6.05;1.50;;;10.00;83.30;;;;;;4958345;28;20514;-82
2021/11/02 10:39:23;;;;;;;2.55;1.27;;;10.20;83.30;;;;;;4973506;28;20059;-82
2021/11/02 10:42:03;;;;;;;5.47;1.17;;;10.20;83.10;;;;;;4969976;28;20054;-84
2021/11/02 10:44:46;;;;;;;3.67;0.98;;;10.40;82.90;;;;;;4973693;28;20047;-83
2021/11/02 10:47:20;;;;;;;3.38;0.85;;;10.50;82.60;;;;;;4972747;28;20053;-83
2021/11/02 10:50:05;;;;;;;3.20;1.17;;;10.60;82.30;;;;;;4972444;28;20055;-83
2021/11/02 10:52:32;;;;;;;3.03;0.95;;;10.70;81.90;;;;;;4973029;28;20042;-82
2021/11/02 10:55:18;;;;;;;3.90;1.10;;;10.90;81.50;;;;;;4972155;28;20069;-82
2021/11/02 10:58:04;;;;;;;2.72;0.90;;;10.90;81.10;;;;;;4972812;28;20058;-83
2021/11/02 11:00:34;;;;;;;4.15;0.88;;;11.00;80.70;;;;;;4958569;28;20050;-83
2021/11/02 11:03:09;;;;;;;5.93;1.17;;;11.10;80.40;;;;;;4972469;28;20051;-83
2021/11/02 11:05:36;;;;;;;2.72;1.00;;;11.20;80.10;;;;;;4960766;28;20062;-83
2021/11/02 11:08:05;;;;;;;2.80;0.90;;;11.30;79.80;;;;;;4960772;28;20050;-84
2021/11/02 11:10:32;;;;;;;3.70;0.80;;;11.40;79.60;;;;;;4961006;28;20044;-83
2021/11/02 11:13:01;;;;;;;3.88;1.08;;;11.40;79.30;;;;;;4961046;28;20051;-83
2021/11/02 11:15:32;;;;;;;3.28;1.00;;;11.50;79.20;;;;;;4957438;28;20043;-83
2021/11/02 11:18:04;;;;;;;2.17;0.85;;;11.50;79.00;;;;;;4957700;28;20047;-83
2021/11/02 11:20:34;;;;;;;3.13;0.77;;;11.60;78.80;;;;;;4962750;28;20050;-82
2021/11/02 11:23:08;;;;;;;2.63;0.55;;;11.70;78.60;;;;;;4962448;28;20472;-83
2021/11/02 11:25:51;;;;;;;3.38;1.60;;;11.70;78.00;;;;;;4960668;28;20047;-83
2021/11/02 11:28:19;;;;;;;5.68;2.03;;;11.70;77.50;;;;;;4960697;28;20066;-83
2021/11/02 11:30:48;;;;;;;3.08;1.20;;;11.80;77.10;;;;;;4959583;28;20046;-84
2021/11/02 11:33:19;;;;;;;3.53;1.40;;;11.80;76.70;;;;;;4957018;28;20062;-82
2021/11/02 11:35:49;;;;;;;3.60;1.40;;;11.80;76.40;;;;;;4971080;28;20050;-83
2021/11/02 11:38:16;;;;;;;2.85;1.25;;;11.90;76.30;;;;;;4960723;28;20403;-83
2021/11/02 11:40:45;;;;;;;3.25;1.25;;;11.90;76.20;;;;;;4960224;28;20054;-83
2021/11/02 11:43:14;;;;;;;4.30;1.25;;;11.90;76.10;;;;;;4960334;28;20102;-83
2021/11/02 11:45:46;;;;;;;2.47;1.10;;;11.90;75.90;;;;;;4957906;28;20071;-83
2021/11/02 11:48:24;;;;;;;3.85;1.10;;;11.90;75.80;;;;;;4957066;28;20415;-84
2021/11/02 11:50:55;;;;;;;3.38;1.10;;;12.00;75.70;;;;;;4971773;28;20055;-85
2021/11/02 11:53:24;;;;;;;2.47;1.20;;;12.00;75.60;;;;;;4962068;28;20074;-84
2021/11/02 11:56:13;;;;;;;4.00;1.25;;;12.10;75.60;;;;;;4959713;28;20090;-84
2021/11/02 11:58:53;;;;;;;2.38;0.93;;;12.10;75.50;;;;;;4960119;28;20059;-85
2021/11/02 12:01:35;;;;;;;4.20;1.20;;;12.20;75.40;;;;;;4961097;28;20099;-84
2021/11/02 12:04:06;;;;;;;3.58;1.00;;;12.20;75.30;;;;;;4961598;28;20396;-84
2021/11/02 12:06:39;;;;;;;3.00;0.90;;;12.30;75.20;;;;;;4957675;28;20048;-84
2021/11/02 12:09:16;;;;;;;2.72;1.10;;;12.40;75.00;;;;;;4957690;28;20059;-84
2021/11/02 12:11:44;;;;;;;3.42;1.08;;;12.40;74.80;;;;;;4959893;28;20054;-84
2021/11/02 12:14:23;;;;;;;5.88;0.90;;;12.50;74.50;;;;;;4959483;28;20059;-85
2021/11/02 12:16:51;;;;;;;5.80;0.90;;;12.50;74.20;;;;;;4959473;28;20047;-85
2021/11/02 12:19:23;;;;;;;4.55;1.00;;;12.60;74.00;;;;;;4959883;28;20054;-84
2021/11/02 12:22:05;;;;;;;2.70;1.00;;;12.70;73.80;;;;;;4959097;28;20047;-85
2021/11/02 12:24:36;;;;;;;3.05;0.90;;;12.70;73.60;;;;;;4956423;28;20055;-85
2021/11/02 12:27:18;;;;;;;2.42;0.80;;;12.80;73.50;;;;;;4957373;28;20054;-84
2021/11/02 12:29:47;;;;;;;4.07;0.98;;;12.90;73.30;;;;;;4959537;28;20055;-85
2021/11/02 12:32:17;;;;;;;2.25;0.80;;;12.90;73.10;;;;;;4959243;28;20120;-85
2021/11/02 12:34:50;;;;;;;1.55;0.70;;;13.00;72.90;;;;;;4959417;28;20055;-85
2021/11/02 12:37:19;;;;;;;2.85;0.70;;;13.10;72.80;;;;;;4959409;28;20047;-86
2021/11/02 12:39:48;;;;;;;2.53;0.77;;;13.10;72.60;;;;;;4958151;28;20050;-86
2021/11/02 12:42:20;;;;;;;4.90;0.82;;;13.20;72.40;;;;;;4956288;28;20134;-86
2021/11/02 12:44:49;;;;;;;4.72;0.88;;;13.30;72.20;;;;;;4959075;28;20415;-86
2021/11/02 12:47:22;;;;;;;8.98;1.10;;;13.40;71.90;;;;;;4959078;28;20492;-87
2021/11/02 12:49:57;;;;;;;3.65;0.93;;;13.40;71.70;;;;;;4959901;28;20055;-86
2021/11/02 12:52:34;;;;;;;2.03;0.80;;;13.50;71.50;;;;;;4959121;28;20118;-85
2021/11/02 12:55:14;;;;;;;3.03;1.00;;;13.50;71.30;;;;;;4958268;28;20470;-85
2021/11/02 12:57:45;;;;;;;2.40;1.10;;;13.50;71.00;;;;;;4955372;28;20500;-85
2021/11/02 13:00:26;;;;;;;4.15;0.90;;;13.60;70.70;;;;;;4954600;28;20110;-85
2021/11/02 13:03:02;;;;;;;3.75;1.20;;;13.60;70.60;;;;;;4969063;28;20058;-85
2021/11/02 13:05:30;;;;;;;3.78;1.10;;;13.50;70.40;;;;;;4957607;28;20054;-85
2021/11/02 13:08:08;;;;;;;3.85;1.20;;;13.50;70.30;;;;;;4957502;28;20133;-85
2021/11/02 13:10:36;;;;;;;3.88;1.13;;;13.50;70.30;;;;;;4959125;28;20050;-85
2021/11/02 13:13:10;;;;;;;4.18;1.60;;;13.50;70.30;;;;;;4957161;28;20046;-86
2021/11/02 13:16:06;;;;;;;3.08;1.20;;;13.50;70.20;;;;;;4956573;28;20831;-85
2021/11/02 13:18:39;;;;;;;3.97;1.67;;;13.40;70.20;;;;;;4958159;28;20134;-85
2021/11/02 13:21:20;;;;;;;4.60;1.88;;;13.40;70.20;;;;;;4955020;28;20055;-85
2021/11/02 13:23:50;;;;;;;4.32;1.63;;;13.30;70.20;;;;;;4957444;28;20058;-85
2021/11/02 13:26:20;;;;;;;4.30;1.88;;;13.30;70.30;;;;;;4957418;28;20126;-86
2021/11/02 13:28:49;;;;;;;5.35;1.50;;;13.20;70.30;;;;;;4962321;28;20059;-85
2021/11/02 13:31:28;;;;;;;5.50;1.40;;;13.20;70.40;;;;;;4965643;28;20340;-85
2021/11/02 13:34:03;;;;;;;5.95;2.72;;;13.10;70.50;;;;;;4956904;28;20535;-85
2021/11/02 13:36:30;;;;;;;6.72;2.50;;;13.00;70.60;;;;;;4954040;28;20058;-85
2021/11/02 13:39:09;;;;;;;7.47;4.35;;;12.90;70.70;;;;;;4955368;28;20051;-85
2021/11/02 13:41:50;;;;;;;6.10;2.03;;;12.90;70.80;;;;;;4957045;28;20147;-86
2021/11/02 13:44:19;;;;;;;5.35;2.33;;;12.80;70.60;;;;;;4957064;28;20113;-85
2021/11/02 13:46:55;;;;;;;5.00;2.58;;;12.70;70.50;;;;;;4956918;28;20512;-85
2021/11/02 13:49:23;;;;;;;7.30;3.42;;;12.60;70.50;;;;;;4956835;28;20074;-85
2021/11/02 13:51:51;;;;;;;7.88;4.95;;;12.60;70.50;;;;;;4956146;28;20058;-84
2021/11/02 13:54:20;;;;;;;7.45;3.70;;;12.50;70.60;;;;;;4953714;28;20059;-85
2021/11/02 13:56:48;;;;;;;5.47;3.08;;;12.40;70.60;;;;;;4956606;28;20110;-85
2021/11/02 13:59:16;;;;;;;7.32;2.75;;;12.30;70.60;;;;;;4958714;28;20094;-85
2021/11/02 14:01:45;;;;;;;5.22;2.60;;;12.20;70.70;;;;;;4957026;28;20055;-85
2021/11/02 14:04:18;;;;;;;9.18;4.25;;;12.10;70.70;;;;;;4956958;28;20051;-85
2021/11/02 14:06:49;;;;;;;6.80;2.97;;;12.00;70.80;;;;;;4955494;28;20054;-84
2021/11/02 14:09:25;;;;;;;5.95;3.35;;;12.00;70.90;;;;;;4952580;28;20416;-85
2021/11/02 14:11:52;;;;;;;7.80;4.47;;;11.90;71.00;;;;;;4962062;28;20090;-85
2021/11/02 14:14:32;;;;;;;7.50;3.72;;;11.90;71.10;;;;;;4967406;28;20054;-85
2021/11/02 14:17:15;;;;;;;6.97;4.10;;;11.70;71.10;;;;;;4962232;28;20455;-85
2021/11/02 14:19:43;;;;;;;6.53;4.05;;;11.70;71.20;;;;;;4957874;28;20055;-85
2021/11/02 14:22:12;;;;;;;7.32;3.90;;;11.60;71.30;;;;;;4959509;28;20046;-85
2021/11/02 14:24:45;;;;;;;8.73;4.53;;;11.50;71.40;;;;;;4955388;28;20114;-85
2021/11/02 14:27:39;;;;;;;6.13;3.20;;;11.50;71.60;;;;;;4955438;28;20058;-85
2021/11/02 14:30:07;;;;;;;5.97;3.60;;;11.40;71.70;;;;;;4960990;28;20067;-84
2021/11/02 14:32:37;;;;;;;6.25;3.55;;;11.40;71.80;;;;;;4957584;28;20055;-83
2021/11/02 14:35:11;;;;;;;7.20;2.80;;;11.30;71.90;;;;;;4968754;28;20571;-83
2021/11/02 14:37:52;;;;;;;6.45;3.10;;;11.30;72.10;;;;;;4965167;28;20111;-83
2021/11/02 14:40:25;;;;;;;4.78;2.50;;;11.20;72.30;;;;;;4958852;28;20644;-83
2021/11/02 14:42:54;;;;;;;4.70;2.53;;;11.10;72.50;;;;;;4957268;28;20058;-83
2021/11/02 14:45:49;;;;;;;5.20;2.75;;;11.10;72.60;;;;;;4953084;28;20062;-83
2021/11/02 14:48:37;;;;;;;4.93;2.55;;;11.00;72.80;;;;;;4955103;28;20495;-83
2021/11/02 14:51:12;;;;;;;4.40;2.15;;;11.00;73.10;;;;;;4968581;28;20054;-83
2021/11/02 14:53:40;;;;;;;5.18;2.47;;;10.90;73.30;;;;;;4957387;28;20468;-83
2021/11/02 14:56:15;;;;;;;4.88;2.30;;;10.90;73.50;;;;;;4957322;28;20050;-83
2021/11/02 14:58:43;;;;;;;4.57;1.80;;;10.90;73.70;;;;;;4957798;28;20043;-83
2021/11/02 15:01:15;;;;;;;3.67;1.65;;;10.80;73.80;;;;;;4957391;28;20043;-83
2021/11/02 15:03:58;;;;;;;4.70;1.83;;;10.80;74.00;;;;;;4955986;28;20087;-83
2021/11/02 15:06:46;;;;;;;3.83;1.90;;;10.70;74.20;;;;;;4958151;28;20541;-83
2021/11/02 15:09:16;;;;;;;5.40;3.50;;;10.70;74.40;;;;;;4954228;28;20110;-82
2021/11/02 15:11:45;;;;;;;9.05;2.85;;;10.70;74.60;;;;;;4957591;28;20673;-83
2021/11/02 15:14:17;;;;;;;4.80;2.50;;;10.60;74.80;;;;;;4969707;28;20518;-83
2021/11/02 15:16:49;;;;;;;5.50;2.80;;;10.60;74.90;;;;;;4963218;28;20519;-83
2021/11/02 15:19:18;;;;;;;5.75;2.65;;;10.60;75.10;;;;;;4959196;28;20097;-83
2021/11/02 15:21:52;;;;;;;5.55;2.78;;;10.60;75.20;;;;;;4959417;28;20450;-83
2021/11/02 15:24:30;;;;;;;6.18;2.90;;;10.50;75.40;;;;;;4956352;28;20468;-83
2021/11/02 15:27:04;;;;;;;4.63;2.60;;;10.50;75.50;;;;;;4970579;28;20055;-83
2021/11/02 15:29:33;;;;;;;5.32;2.83;;;10.50;75.60;;;;;;4962485;28;20051;-83
2021/11/02 15:32:08;;;;;;;4.57;2.70;;;10.50;75.80;;;;;;4960705;28;20062;-82
2021/11/02 15:34:46;;;;;;;4.18;2.33;;;10.50;75.80;;;;;;4960418;28;20051;-83
2021/11/02 15:37:16;;;;;;;5.40;2.30;;;10.50;76.00;;;;;;4960338;28;20429;-83
2021/11/02 15:39:54;;;;;;;6.15;2.60;;;10.40;76.10;;;;;;4959535;28;20455;-83
2021/11/02 15:42:31;;;;;;;6.22;2.40;;;10.40;76.20;;;;;;4956630;28;20058;-83
2021/11/02 15:45:18;;;;;;;4.40;2.22;;;10.40;76.30;;;;;;4970845;28;20058;-83
2021/11/02 15:47:49;;;;;;;4.65;2.20;;;10.40;76.40;;;;;;4960621;28;20125;-83
2021/11/02 15:50:27;;;;;;;4.30;2.50;;;10.40;76.40;;;;;;4960247;28;20066;-83
2021/11/02 15:53:03;;;;;;;6.18;2.60;;;10.30;76.50;;;;;;4959413;28;20102;-83
2021/11/02 15:55:31;;;;;;;6.93;2.28;;;10.40;76.60;;;;;;4961966;28;20047;-83
2021/11/02 15:58:02;;;;;;;6.35;2.50;;;10.30;76.70;;;;;;4961976;28;20047;-83
2021/11/02 16:00:32;;;;;;;5.38;2.30;;;10.30;76.70;;;;;;4956158;28;20042;-83
2021/11/02 16:02:59;;;;;;;4.15;2.30;;;10.30;76.80;;;;;;4958272;28;20535;-83
2021/11/02 16:05:37;;;;;;;3.50;1.77;;;10.30;76.80;;;;;;4959766;28;20055;-83
2021/11/02 16:08:17;;;;;;;5.93;2.15;;;10.20;76.90;;;;;;4969366;28;20058;-83
2021/11/02 16:10:51;;;;;;;4.60;2.40;;;10.20;77.00;;;;;;4964658;28;20046;-84
2021/11/02 16:13:23;;;;;;;;;;;10.20;77.00;;;;;;4960397;28;20058;-83
2021/11/02 16:15:50;;;;;;;4.55;2.33;;;10.10;77.10;;;;;;4958858;28;19922;-83
2021/11/02 16:18:24;;;;;;;3.92;1.83;;;10.00;77.10;;;;;;4956463;28;20078;-83
2021/11/02 16:20:53;;;;;;;4.40;1.90;;;10.00;77.20;;;;;;4970685;28;20070;-83
2021/11/02 16:23:23;;;;;;;4.82;2.50;;;10.00;77.30;;;;;;4971371;28;20138;-83
2021/11/02 16:25:58;;;;;;;4.57;1.90;;;9.90;77.40;;;;;;4963559;28;20115;-83
2021/11/02 16:28:30;;;;;;;3.13;1.70;;;9.90;77.40;;;;;;4959521;28;20051;-83
2021/11/02 16:31:01;;;;;;;4.38;1.83;;;9.90;77.50;;;;;;4959103;28;20117;-83
2021/11/02 16:33:35;;;;;;;3.78;1.77;;;9.90;77.60;;;;;;4955466;28;20046;-83
2021/11/02 16:36:28;;;;;;;3.38;1.70;;;9.80;77.70;;;;;;4957650;28;20051;-83
2021/11/02 16:39:14;;;;;;;4.70;1.63;;;9.80;77.70;;;;;;4959008;28;20062;-83
2021/11/02 16:41:59;;;;;;;4.18;1.77;;;9.70;77.80;;;;;;4971994;28;20142;-83
2021/11/02 16:44:31;;;;;;;3.78;1.60;;;9.70;77.80;;;;;;4971535;28;20050;-83
2021/11/02 16:47:06;;;;;;;8.40;1.85;;;9.60;77.90;;;;;;4962459;28;20408;-83
2021/11/02 16:49:34;;;;;;;4.60;1.80;;;9.60;78.00;;;;;;4959189;28;20055;-83
2021/11/02 16:52:07;;;;;;;3.15;1.50;;;9.60;78.00;;;;;;4958675;28;20392;-84
2021/11/02 16:54:42;;;;;;;5.65;1.60;;;9.50;78.10;;;;;;4956093;28;20047;-83
2021/11/02 16:57:18;;;;;;;7.65;1.80;;;9.50;78.10;;;;;;4956802;28;20051;-83
2021/11/02 17:00:03;;;;;;;5.80;2.13;;;9.50;78.20;;;;;;4958933;28;20492;-84
2021/11/02 17:02:39;;;;;;;4.35;1.70;;;9.40;78.20;;;;;;4958874;28;20051;-84
2021/11/02 17:05:14;;;;;;;4.40;1.70;;;9.40;78.30;;;;;;4959019;28;20508;-84
2021/11/02 17:07:48;;;;;;;8.57;2.00;;;9.40;78.30;;;;;;4962362;28;20047;-83
2021/11/02 17:10:15;;;;;;;;;;;9.30;78.30;;;;;;4959294;28;20051;-83
2021/11/02 17:12:47;;;;;;;5.80;2.13;;;9.30;78.40;;;;;;4957074;28;19922;-83
2021/11/02 17:15:25;;;;;;;5.65;2.53;;;9.30;78.40;;;;;;4955608;28;20066;-84
2021/11/02 17:17:54;;;;;;;6.25;2.90;;;9.20;78.50;;;;;;4970040;28;20431;-83
2021/11/02 17:20:21;;;;;;;6.00;3.03;;;9.20;78.50;;;;;;4960212;28;20051;-83
2021/11/02 17:22:51;;;;;;;6.45;3.10;;;9.20;78.60;;;;;;4958286;28;20051;-83
2021/11/02 17:25:20;;;;;;;5.07;3.00;;;9.20;78.60;;;;;;4958856;28;20051;-83
2021/11/02 17:27:50;;;;;;;5.78;2.72;;;9.10;78.70;;;;;;4957459;28;20051;-83
2021/11/02 17:30:31;;;;;;;5.75;3.22;;;9.10;78.80;;;;;;4954944;28;20051;-84
2021/11/02 17:33:00;;;;;;;7.47;4.25;;;9.10;78.80;;;;;;4969408;28;20058;-83
2021/11/02 17:35:27;;;;;;;9.60;4.25;;;9.00;78.90;;;;;;4959604;28;20062;-83
2021/11/02 17:37:56;;;;;;;7.25;4.30;;;9.00;78.90;;;;;;4958408;28;20051;-83
2021/11/02 17:40:24;;;;;;;10.23;4.38;;;9.00;79.00;;;;;;4958537;28;20043;-83
2021/11/02 17:42:59;;;;;;;8.07;4.40;;;9.00;79.00;;;;;;4957027;28;20055;-83
2021/11/02 17:45:28;;;;;;;8.70;4.75;;;8.90;79.10;;;;;;4954023;28;20046;-83
2021/11/02 17:47:56;;;;;;;9.73;4.82;;;8.90;79.10;;;;;;4956890;28;20504;-83
2021/11/02 17:50:27;;;;;;;8.63;4.65;;;8.90;79.10;;;;;;4958651;28;20111;-83
2021/11/02 17:52:55;;;;;;;8.40;5.22;;;8.90;79.20;;;;;;4958222;28;20358;-83
2021/11/02 17:55:23;;;;;;;13.00;5.22;;;8.90;79.20;;;;;;4958322;28;20070;-83
2021/11/02 17:57:53;;;;;;;7.57;4.93;;;8.90;79.20;;;;;;4957020;28;20448;-83
2021/11/02 18:00:26;;;;;;;7.28;5.18;;;8.90;79.20;;;;;;4955158;28;20474;-83
2021/11/02 18:02:55;;;;;;;9.05;5.55;;;8.90;79.20;;;;;;4969013;28;20062;-83
2021/11/02 18:05:23;;;;;;;8.40;5.78;;;8.80;79.20;;;;;;4969868;28;20046;-83
2021/11/02 18:07:51;;;;;;;8.73;6.05;;;8.80;79.30;;;;;;4961769;28;20063;-83
2021/11/02 18:10:19;;;;;;;8.50;6.25;;;8.70;79.30;;;;;;4959589;28;20059;-83
2021/11/02 18:12:46;;;;;;;9.10;6.32;;;8.70;79.30;;;;;;4956356;28;20474;-83
2021/11/02 18:15:14;;;;;;;10.05;6.88;;;8.70;79.30;;;;;;4955150;28;20070;-83
2021/11/02 18:17:46;;;;;;;11.35;7.38;;;8.60;79.30;;;;;;4957670;28;20531;-83
2021/11/02 18:20:15;;;;;;;11.77;7.15;;;8.60;79.30;;;;;;4957617;28;20055;-82
2021/11/02 18:22:46;;;;;;;11.85;7.53;;;8.60;79.40;;;;;;4958067;28;20043;-82
2021/11/02 18:25:16;;;;;;;11.52;8.40;;;8.50;79.30;;;;;;4958023;28;20055;-83